sensor_id;sensor_type;location;lat;lon;timestamp;pressure;altitude;pressure_sealevel;temperature;humidity
29371;BME280;16357;52.188;7.838;2023-01-28T00:01:23;102168.06;;;4.56;53.97
29371;BME280;16357;52.188;7.838;2023-01-28T00:03:49;102167.94;;;4.58;54.39
29371;BME280;16357;52.188;7.838;2023-01-28T00:06:17;102167.03;;;4.59;54.28
29371;BME280;16357;52.188;7.838;2023-01-28T00:08:44;102165.16;;;4.61;54.28
29371;BME280;16357;52.188;7.838;2023-01-28T00:11:12;102166.84;;;4.62;54.78
29371;BME280;16357;52.188;7.838;2023-01-28T00:13:39;102153.50;;;4.64;54.33
29371;BME280;16357;52.188;7.838;2023-01-28T00:16:07;102159.56;;;4.66;54.33
29371;BME280;16357;52.188;7.838;2023-01-28T00:18:35;102156.84;;;4.67;54.18
29371;BME280;16357;52.188;7.838;2023-01-28T00:21:05;102154.00;;;4.70;54.08
29371;BME280;16357;52.188;7.838;2023-01-28T00:23:34;102160.19;;;4.71;53.78
29371;BME280;16357;52.188;7.838;2023-01-28T00:26:03;102164.56;;;4.72;53.60
29371;BME280;16357;52.188;7.838;2023-01-28T00:28:30;102160.19;;;4.71;53.99
29371;BME280;16357;52.188;7.838;2023-01-28T00:30:56;102165.50;;;4.71;53.78
29371;BME280;16357;52.188;7.838;2023-01-28T00:33:23;102165.59;;;4.69;53.39
29371;BME280;16357;52.188;7.838;2023-01-28T00:35:59;102167.41;;;4.69;53.81
29371;BME280;16357;52.188;7.838;2023-01-28T00:38:27;102170.13;;;4.67;53.76
29371;BME280;16357;52.188;7.838;2023-01-28T00:40:53;102172.97;;;4.64;53.37
29371;BME280;16357;52.188;7.838;2023-01-28T00:43:20;102170.47;;;4.61;53.27
29371;BME280;16357;52.188;7.838;2023-01-28T00:45:47;102179.47;;;4.58;53.52
29371;BME280;16357;52.188;7.838;2023-01-28T00:48:15;102168.06;;;4.56;53.88
29371;BME280;16357;52.188;7.838;2023-01-28T00:50:43;102170.78;;;4.55;53.91
29371;BME280;16357;52.188;7.838;2023-01-28T00:53:10;102170.78;;;4.55;53.91
29371;BME280;16357;52.188;7.838;2023-01-28T00:55:37;102177.91;;;4.54;53.87
29371;BME280;16357;52.188;7.838;2023-01-28T00:58:03;102177.03;;;4.54;53.83
29371;BME280;16357;52.188;7.838;2023-01-28T01:00:30;102176.94;;;4.55;53.80
29371;BME280;16357;52.188;7.838;2023-01-28T01:02:56;102176.09;;;4.55;53.36
29371;BME280;16357;52.188;7.838;2023-01-28T01:05:22;102176.09;;;4.55;53.33
29371;BME280;16357;52.188;7.838;2023-01-28T01:07:49;102176.09;;;4.55;53.26
29371;BME280;16357;52.188;7.838;2023-01-28T01:10:17;102170.88;;;4.53;53.35
29371;BME280;16357;52.188;7.838;2023-01-28T01:12:45;102171.78;;;4.52;53.40
29371;BME280;16357;52.188;7.838;2023-01-28T01:15:12;102174.56;;;4.51;53.46
29371;BME280;16357;52.188;7.838;2023-01-28T01:17:42;102179.94;;;4.49;53.43
29371;BME280;16357;52.188;7.838;2023-01-28T01:20:13;102179.09;;;4.49;53.85
29371;BME280;16357;52.188;7.838;2023-01-28T01:22:40;102184.47;;;4.47;53.34
29371;BME280;16357;52.188;7.838;2023-01-28T01:25:07;102182.75;;;4.46;53.32
29371;BME280;16357;52.188;7.838;2023-01-28T01:27:33;102183.78;;;4.44;53.04
29371;BME280;16357;52.188;7.838;2023-01-28T01:30:00;102177.69;;;4.42;52.87
29371;BME280;16357;52.188;7.838;2023-01-28T01:32:30;102184.81;;;4.41;52.83
29371;BME280;16357;52.188;7.838;2023-01-28T01:34:57;102184.13;;;4.37;53.00
29371;BME280;16357;52.188;7.838;2023-01-28T01:37:23;102184.25;;;4.34;52.82
29371;BME280;16357;52.188;7.838;2023-01-28T01:39:50;102178.25;;;4.31;52.94
29371;BME280;16357;52.188;7.838;2023-01-28T01:42:16;102188.19;;;4.27;52.40
29371;BME280;16357;52.188;7.838;2023-01-28T01:45:06;102174.28;;;4.22;52.31
29371;BME280;16357;52.188;7.838;2023-01-28T01:47:58;102173.66;;;4.17;52.66
29371;BME280;16357;52.188;7.838;2023-01-28T01:50:37;102178.19;;;4.15;53.17
29371;BME280;16357;52.188;7.838;2023-01-28T01:53:10;102180.06;;;4.13;53.44
29371;BME280;16357;52.188;7.838;2023-01-28T01:55:42;102179.16;;;4.14;53.64
29371;BME280;16357;52.188;7.838;2023-01-28T01:58:17;102174.75;;;4.13;53.53
29371;BME280;16357;52.188;7.838;2023-01-28T02:00:45;102181.81;;;4.14;53.26
29371;BME280;16357;52.188;7.838;2023-01-28T02:03:11;102179.22;;;4.12;53.19
29371;BME280;16357;52.188;7.838;2023-01-28T02:05:38;102177.41;;;4.13;53.05
29371;BME280;16357;52.188;7.838;2023-01-28T02:08:05;102178.41;;;4.10;53.03
29371;BME280;16357;52.188;7.838;2023-01-28T02:11:00;102187.28;;;4.11;52.90
29371;BME280;16357;52.188;7.838;2023-01-28T02:13:31;102185.53;;;4.10;52.98
29371;BME280;16357;52.188;7.838;2023-01-28T02:15:59;102184.69;;;4.09;53.22
29371;BME280;16357;52.188;7.838;2023-01-28T02:18:26;102190.00;;;4.09;52.76
29371;BME280;16357;52.188;7.838;2023-01-28T02:23:42;102199.81;;;4.07;53.13
29371;BME280;16357;52.188;7.838;2023-01-28T02:32:37;102185.13;;;4.00;52.76
29371;BME280;16357;52.188;7.838;2023-01-28T02:35:13;102187.88;;;3.99;53.04
29371;BME280;16357;52.188;7.838;2023-01-28T02:37:56;102179.13;;;3.96;53.48
29371;BME280;16357;52.188;7.838;2023-01-28T02:40:29;102189.91;;;3.93;53.18
29371;BME280;16357;52.188;7.838;2023-01-28T02:42:59;102190.88;;;3.92;53.26
29371;BME280;16357;52.188;7.838;2023-01-28T02:45:30;102189.06;;;3.93;53.55
29371;BME280;16357;52.188;7.838;2023-01-28T02:48:16;102193.38;;;3.95;53.54
29371;BME280;16357;52.188;7.838;2023-01-28T02:51:01;102182.75;;;3.95;53.64
29371;BME280;16357;52.188;7.838;2023-01-28T02:53:40;102187.03;;;3.98;53.75
29371;BME280;16357;52.188;7.838;2023-01-28T02:56:49;102180.72;;;4.01;53.18
29371;BME280;16357;52.188;7.838;2023-01-28T02:59:33;102184.13;;;4.03;53.70
29371;BME280;16357;52.188;7.838;2023-01-28T03:02:35;102180.56;;;4.04;53.41
29371;BME280;16357;52.188;7.838;2023-01-28T03:05:28;102179.59;;;4.05;53.19
29371;BME280;16357;52.188;7.838;2023-01-28T03:07:56;102178.75;;;4.04;53.19
29371;BME280;16357;52.188;7.838;2023-01-28T03:10:25;102179.69;;;4.03;53.15
29371;BME280;16357;52.188;7.838;2023-01-28T03:12:54;102184.13;;;4.03;53.17
29371;BME280;16357;52.188;7.838;2023-01-28T03:15:43;102185.06;;;4.02;53.23
29371;BME280;16357;52.188;7.838;2023-01-28T03:18:49;102192.34;;;3.98;53.12
29371;BME280;16357;52.188;7.838;2023-01-28T03:21:41;102187.09;;;3.96;52.67
29371;BME280;16357;52.188;7.838;2023-01-28T03:24:31;102183.66;;;3.94;52.67
29371;BME280;16357;52.188;7.838;2023-01-28T03:27:22;102184.59;;;3.93;52.47
29371;BME280;16357;52.188;7.838;2023-01-28T03:30:34;102168.84;;;3.90;52.81
29371;BME280;16357;52.188;7.838;2023-01-28T03:33:22;102173.28;;;3.90;52.98
29371;BME280;16357;52.188;7.838;2023-01-28T03:36:08;102176.88;;;3.89;52.81
29371;BME280;16357;52.188;7.838;2023-01-28T03:38:53;102181.31;;;3.88;52.93
29371;BME280;16357;52.188;7.838;2023-01-28T03:41:21;102184.94;;;3.87;52.81
29371;BME280;16357;52.188;7.838;2023-01-28T03:43:49;102184.94;;;3.87;53.15
29371;BME280;16357;52.188;7.838;2023-01-28T03:46:16;102181.50;;;3.85;53.11
29371;BME280;16357;52.188;7.838;2023-01-28T03:48:44;102182.41;;;3.84;52.84
29371;BME280;16357;52.188;7.838;2023-01-28T03:51:11;102183.34;;;3.83;53.10
29371;BME280;16357;52.188;7.838;2023-01-28T03:53:38;102192.25;;;3.82;53.28
29371;BME280;16357;52.188;7.838;2023-01-28T03:56:05;102191.31;;;3.83;53.10
29371;BME280;16357;52.188;7.838;2023-01-28T03:58:32;102189.50;;;3.84;53.16
29371;BME280;16357;52.188;7.838;2023-01-28T04:01:18;102189.44;;;3.85;53.13
29371;BME280;16357;52.188;7.838;2023-01-28T04:03:44;102179.75;;;3.84;53.07
29371;BME280;16357;52.188;7.838;2023-01-28T04:06:11;102191.16;;;3.86;53.37
29371;BME280;16357;52.188;7.838;2023-01-28T04:08:37;102200.91;;;3.86;52.97
29371;BME280;16357;52.188;7.838;2023-01-28T04:11:03;102207.09;;;3.86;52.96
29371;BME280;16357;52.188;7.838;2023-01-28T04:13:45;102211.59;;;3.84;53.00
29371;BME280;16357;52.188;7.838;2023-01-28T04:16:13;102216.91;;;3.84;52.89
29371;BME280;16357;52.188;7.838;2023-01-28T04:18:42;102216.16;;;3.82;53.02
29371;BME280;16357;52.188;7.838;2023-01-28T04:21:08;102209.09;;;3.81;53.24
29371;BME280;16357;52.188;7.838;2023-01-28T04:23:35;102218.97;;;3.79;52.86
29371;BME280;16357;52.188;7.838;2023-01-28T04:26:01;102213.66;;;3.79;53.22
29371;BME280;16357;52.188;7.838;2023-01-28T04:28:29;102211.00;;;3.79;53.10
29371;BME280;16357;52.188;7.838;2023-01-28T04:30:56;102212.78;;;3.79;53.47
29371;BME280;16357;52.188;7.838;2023-01-28T04:33:22;102215.38;;;3.80;53.61
29371;BME280;16357;52.188;7.838;2023-01-28T04:35:49;102206.44;;;3.81;53.53
29371;BME280;16357;52.188;7.838;2023-01-28T04:38:15;102198.50;;;3.81;53.04
29371;BME280;16357;52.188;7.838;2023-01-28T04:40:41;102200.22;;;3.82;52.98
29371;BME280;16357;52.188;7.838;2023-01-28T04:43:08;102208.09;;;3.84;53.13
29371;BME280;16357;52.188;7.838;2023-01-28T04:45:34;102192.97;;;3.86;53.16
29371;BME280;16357;52.188;7.838;2023-01-28T04:48:00;102191.16;;;3.86;52.91
29371;BME280;16357;52.188;7.838;2023-01-28T04:50:27;102195.56;;;3.87;52.97
29371;BME280;16357;52.188;7.838;2023-01-28T04:52:53;102204.44;;;3.86;52.23
29371;BME280;16357;52.188;7.838;2023-01-28T04:55:20;102199.28;;;3.83;52.19
29371;BME280;16357;52.188;7.838;2023-01-28T04:57:46;102208.34;;;3.79;52.17
29371;BME280;16357;52.188;7.838;2023-01-28T05:00:14;102203.25;;;3.74;52.01
29371;BME280;16357;52.188;7.838;2023-01-28T05:02:40;102210.50;;;3.71;52.02
29371;BME280;16357;52.188;7.838;2023-01-28T05:05:07;102203.69;;;3.65;52.46
29371;BME280;16357;52.188;7.838;2023-01-28T05:07:36;102201.16;;;3.64;52.38
29371;BME280;16357;52.188;7.838;2023-01-28T05:10:03;102207.47;;;3.61;52.23
29371;BME280;16357;52.188;7.838;2023-01-28T05:12:30;102198.78;;;3.58;52.34
29371;BME280;16357;52.188;7.838;2023-01-28T05:14:58;102209.47;;;3.56;52.39
29371;BME280;16357;52.188;7.838;2023-01-28T05:17:28;102217.59;;;3.53;52.21
29371;BME280;16357;52.188;7.838;2023-01-28T05:19:54;102224.75;;;3.51;52.45
29371;BME280;16357;52.188;7.838;2023-01-28T05:22:20;102220.47;;;3.48;52.10
29371;BME280;16357;52.188;7.838;2023-01-28T05:24:47;102229.41;;;3.46;52.24
29371;BME280;16357;52.188;7.838;2023-01-28T05:27:14;102226.06;;;3.42;52.26
29371;BME280;16357;52.188;7.838;2023-01-28T05:29:40;102224.31;;;3.41;52.89
29371;BME280;16357;52.188;7.838;2023-01-28T05:32:06;102226.19;;;3.39;52.83
29371;BME280;16357;52.188;7.838;2023-01-28T05:34:33;102222.78;;;3.37;52.78
29371;BME280;16357;52.188;7.838;2023-01-28T05:36:59;102218.38;;;3.36;53.04
29371;BME280;16357;52.188;7.838;2023-01-28T05:39:26;102215.72;;;3.36;53.02
29371;BME280;16357;52.188;7.838;2023-01-28T05:41:52;102204.13;;;3.39;53.23
29371;BME280;16357;52.188;7.838;2023-01-28T05:44:18;102202.25;;;3.41;53.20
29371;BME280;16357;52.188;7.838;2023-01-28T05:46:45;102205.69;;;3.43;53.26
29371;BME280;16357;52.188;7.838;2023-01-28T05:49:12;102199.38;;;3.45;53.25
29371;BME280;16357;52.188;7.838;2023-01-28T05:51:39;102202.81;;;3.47;53.07
29371;BME280;16357;52.188;7.838;2023-01-28T05:54:06;102200.09;;;3.49;53.42
29371;BME280;16357;52.188;7.838;2023-01-28T05:56:32;102208.91;;;3.49;53.32
29371;BME280;16357;52.188;7.838;2023-01-28T05:59:00;102199.06;;;3.51;53.58
29371;BME280;16357;52.188;7.838;2023-01-28T06:01:26;102201.66;;;3.53;53.62
29371;BME280;16357;52.188;7.838;2023-01-28T06:03:53;102208.63;;;3.56;53.50
29371;BME280;16357;52.188;7.838;2023-01-28T06:06:19;102203.16;;;3.59;53.48
29371;BME280;16357;52.188;7.838;2023-01-28T06:08:46;102206.50;;;3.62;53.36
29371;BME280;16357;52.188;7.838;2023-01-28T06:11:12;102208.16;;;3.65;53.39
29371;BME280;16357;52.188;7.838;2023-01-28T06:13:39;102208.09;;;3.66;53.25
29371;BME280;16357;52.188;7.838;2023-01-28T06:16:07;102218.47;;;3.71;53.00
29371;BME280;16357;52.188;7.838;2023-01-28T06:18:33;102196.31;;;3.72;52.91
29371;BME280;16357;52.188;7.838;2023-01-28T06:21:00;102198.97;;;3.72;52.97
29371;BME280;16357;52.188;7.838;2023-01-28T06:23:26;102206.06;;;3.71;52.51
29371;BME280;16357;52.188;7.838;2023-01-28T06:25:55;102211.44;;;3.70;52.46
29371;BME280;16357;52.188;7.838;2023-01-28T06:28:22;102205.34;;;3.68;52.73
29371;BME280;16357;52.188;7.838;2023-01-28T06:30:51;102204.56;;;3.66;52.79
29371;BME280;16357;52.188;7.838;2023-01-28T06:33:18;102200.19;;;3.65;52.77
29371;BME280;16357;52.188;7.838;2023-01-28T06:35:45;102208.16;;;3.65;52.51
29371;BME280;16357;52.188;7.838;2023-01-28T06:38:12;102210.81;;;3.65;52.44
29371;BME280;16357;52.188;7.838;2023-01-28T06:40:39;102203.78;;;3.64;52.74
29371;BME280;16357;52.188;7.838;2023-01-28T06:43:05;102202.91;;;3.63;52.64
29371;BME280;16357;52.188;7.838;2023-01-28T06:45:32;102203.84;;;3.62;52.52
29371;BME280;16357;52.188;7.838;2023-01-28T06:47:59;102207.38;;;3.63;52.90
29371;BME280;16357;52.188;7.838;2023-01-28T06:50:25;102207.38;;;3.63;52.39
29371;BME280;16357;52.188;7.838;2023-01-28T06:52:51;102213.53;;;3.63;52.06
29371;BME280;16357;52.188;7.838;2023-01-28T06:55:18;102211.03;;;3.60;52.25
29371;BME280;16357;52.188;7.838;2023-01-28T06:57:44;102220.00;;;3.58;52.34
29371;BME280;16357;52.188;7.838;2023-01-28T07:00:11;102217.44;;;3.56;52.19
29371;BME280;16357;52.188;7.838;2023-01-28T07:02:40;102221.88;;;3.56;52.18
29371;BME280;16357;52.188;7.838;2023-01-28T07:05:07;102224.59;;;3.54;52.18
29371;BME280;16357;52.188;7.838;2023-01-28T07:07:34;102227.25;;;3.54;52.68
29371;BME280;16357;52.188;7.838;2023-01-28T07:10:00;102230.75;;;3.55;52.65
29371;BME280;16357;52.188;7.838;2023-01-28T07:12:26;102239.56;;;3.55;52.45
29371;BME280;16357;52.188;7.838;2023-01-28T07:14:53;102234.22;;;3.57;52.14
29371;BME280;16357;52.188;7.838;2023-01-28T07:17:19;102230.59;;;3.58;52.46
29371;BME280;16357;52.188;7.838;2023-01-28T07:19:46;102230.59;;;3.58;52.54
29371;BME280;16357;52.188;7.838;2023-01-28T07:22:12;102223.59;;;3.57;52.19
29371;BME280;16357;52.188;7.838;2023-01-28T07:24:38;102227.09;;;3.57;52.12
29371;BME280;16357;52.188;7.838;2023-01-28T07:27:06;102227.09;;;3.57;51.88
29371;BME280;16357;52.188;7.838;2023-01-28T07:29:32;102232.50;;;3.56;51.89
29371;BME280;16357;52.188;7.838;2023-01-28T07:31:59;102229.06;;;3.54;51.60
29371;BME280;16357;52.188;7.838;2023-01-28T07:34:25;102232.78;;;3.49;51.49
29371;BME280;16357;52.188;7.838;2023-01-28T07:36:52;102236.44;;;3.47;51.68
29371;BME280;16357;52.188;7.838;2023-01-28T07:39:20;102243.69;;;3.43;52.04
29371;BME280;16357;52.188;7.838;2023-01-28T07:41:46;102249.16;;;3.40;52.16
29371;BME280;16357;52.188;7.838;2023-01-28T07:44:13;102257.25;;;3.37;52.07
29371;BME280;16357;52.188;7.838;2023-01-28T07:46:39;102256.47;;;3.35;51.83
29371;BME280;16357;52.188;7.838;2023-01-28T07:49:06;102254.72;;;3.34;52.34
29371;BME280;16357;52.188;7.838;2023-01-28T07:51:32;102262.78;;;3.33;52.15
29371;BME280;16357;52.188;7.838;2023-01-28T07:53:59;102261.91;;;3.32;52.24
29371;BME280;16357;52.188;7.838;2023-01-28T07:56:26;102266.34;;;3.32;52.19
29371;BME280;16357;52.188;7.838;2023-01-28T07:58:54;102270.63;;;3.34;52.30
29371;BME280;16357;52.188;7.838;2023-01-28T08:01:21;102281.25;;;3.34;51.97
29371;BME280;16357;52.188;7.838;2023-01-28T08:03:47;102267.97;;;3.34;52.32
29371;BME280;16357;52.188;7.838;2023-01-28T08:06:13;102267.06;;;3.35;52.17
29371;BME280;16357;52.188;7.838;2023-01-28T08:08:40;102278.53;;;3.36;52.64
29371;BME280;16357;52.188;7.838;2023-01-28T08:11:09;102291.66;;;3.39;52.51
29371;BME280;16357;52.188;7.838;2023-01-28T08:13:37;102282.69;;;3.41;52.48
29371;BME280;16357;52.188;7.838;2023-01-28T08:16:03;102283.34;;;3.46;52.64
29371;BME280;16357;52.188;7.838;2023-01-28T08:18:30;102294.59;;;3.51;52.76
29371;BME280;16357;52.188;7.838;2023-01-28T08:20:58;102307.50;;;3.59;52.49
29371;BME280;16357;52.188;7.838;2023-01-28T08:23:25;102316.00;;;3.66;52.25
29371;BME280;16357;52.188;7.838;2023-01-28T08:25:52;102310.59;;;3.69;51.99
29371;BME280;16357;52.188;7.838;2023-01-28T08:28:20;102320.97;;;3.73;51.88
29371;BME280;16357;52.188;7.838;2023-01-28T08:30:46;102321.84;;;3.74;51.27
29371;BME280;16357;52.188;7.838;2023-01-28T08:33:14;102324.50;;;3.74;51.23
29371;BME280;16357;52.188;7.838;2023-01-28T08:35:41;102316.53;;;3.74;51.36
29371;BME280;16357;52.188;7.838;2023-01-28T08:38:10;102313.94;;;3.72;51.34
29371;BME280;16357;52.188;7.838;2023-01-28T08:40:37;102322.91;;;3.70;51.34
29371;BME280;16357;52.188;7.838;2023-01-28T08:43:03;102332.72;;;3.68;51.29
29371;BME280;16357;52.188;7.838;2023-01-28T08:45:30;102331.94;;;3.66;51.56
29371;BME280;16357;52.188;7.838;2023-01-28T08:48:02;102346.22;;;3.63;51.60
29371;BME280;16357;52.188;7.838;2023-01-28T08:50:31;102340.03;;;3.63;51.72
29371;BME280;16357;52.188;7.838;2023-01-28T08:53:06;102330.28;;;3.63;51.89
29371;BME280;16357;52.188;7.838;2023-01-28T08:55:33;102327.56;;;3.65;51.93
29371;BME280;16357;52.188;7.838;2023-01-28T08:58:04;102341.63;;;3.67;52.03
29371;BME280;16357;52.188;7.838;2023-01-28T09:00:32;102346.00;;;3.68;51.62
29371;BME280;16357;52.188;7.838;2023-01-28T09:02:59;102351.25;;;3.69;51.32
29371;BME280;16357;52.188;7.838;2023-01-28T09:05:25;102343.19;;;3.71;51.42
29371;BME280;16357;52.188;7.838;2023-01-28T09:07:52;102341.50;;;3.70;51.77
29371;BME280;16357;52.188;7.838;2023-01-28T09:10:18;102357.41;;;3.70;51.59
29371;BME280;16357;52.188;7.838;2023-01-28T09:12:48;102346.78;;;3.70;51.79
29371;BME280;16357;52.188;7.838;2023-01-28T09:15:16;102355.69;;;3.69;51.64
29371;BME280;16357;52.188;7.838;2023-01-28T09:17:43;102366.44;;;3.66;50.81
29371;BME280;16357;52.188;7.838;2023-01-28T09:20:10;102379.78;;;3.64;50.76
29371;BME280;16357;52.188;7.838;2023-01-28T09:22:37;102368.47;;;3.61;51.34
29371;BME280;16357;52.188;7.838;2023-01-28T09:25:04;102373.03;;;3.57;51.22
29371;BME280;16357;52.188;7.838;2023-01-28T09:27:32;102358.97;;;3.55;51.17
29371;BME280;16357;52.188;7.838;2023-01-28T09:29:58;102356.31;;;3.55;51.40
29371;BME280;16357;52.188;7.838;2023-01-28T09:32:25;102354.56;;;3.56;51.72
29371;BME280;16357;52.188;7.838;2023-01-28T09:34:51;102359.72;;;3.59;51.65
29371;BME280;16357;52.188;7.838;2023-01-28T09:37:17;102365.66;;;3.64;51.96
29371;BME280;16357;52.188;7.838;2023-01-28T09:39:53;102349.50;;;3.68;51.75
29371;BME280;16357;52.188;7.838;2023-01-28T09:45:22;102358.56;;;3.83;52.00
29371;BME280;16357;52.188;7.838;2023-01-28T09:47:52;102360.91;;;3.89;51.87
29371;BME280;16357;52.188;7.838;2023-01-28T09:50:25;102363.28;;;3.95;51.29
29371;BME280;16357;52.188;7.838;2023-01-28T09:53:04;102358.69;;;3.99;51.41
29371;BME280;16357;52.188;7.838;2023-01-28T09:55:44;102362.13;;;4.01;50.63
29371;BME280;16357;52.188;7.838;2023-01-28T09:58:13;102356.81;;;4.01;51.06
29371;BME280;16357;52.188;7.838;2023-01-28T10:01:23;102353.31;;;4.01;50.67
29371;BME280;16357;52.188;7.838;2023-01-28T10:09:02;102388.84;;;3.98;50.75
29371;BME280;16357;52.188;7.838;2023-01-28T10:17:17;102389.59;;;4.00;51.48
29371;BME280;16357;52.188;7.838;2023-01-28T10:20:05;102385.03;;;4.04;51.45
29371;BME280;16357;52.188;7.838;2023-01-28T10:22:39;102376.91;;;4.07;51.46
29371;BME280;16357;52.188;7.838;2023-01-28T10:25:17;102384.66;;;4.11;51.69
29371;BME280;16357;52.188;7.838;2023-01-28T10:27:46;102382.63;;;4.16;51.63
29371;BME280;16357;52.188;7.838;2023-01-28T10:30:22;102378.72;;;4.24;51.76
29371;BME280;16357;52.188;7.838;2023-01-28T10:35:53;102363.84;;;4.38;51.44
29371;BME280;16357;52.188;7.838;2023-01-28T10:38:22;102368.84;;;4.45;51.67
29371;BME280;16357;52.188;7.838;2023-01-28T10:40:50;102362.28;;;4.52;51.58
29371;BME280;16357;52.188;7.838;2023-01-28T10:43:19;102360.88;;;4.62;51.43
29371;BME280;16357;52.188;7.838;2023-01-28T10:46:00;102359.47;;;4.72;51.36
29371;BME280;16357;52.188;7.838;2023-01-28T10:48:31;102359.78;;;4.83;51.30
29371;BME280;16357;52.188;7.838;2023-01-28T10:51:01;102353.13;;;4.92;51.13
29371;BME280;16357;52.188;7.838;2023-01-28T10:53:40;102353.44;;;5.03;51.26
29371;BME280;16357;52.188;7.838;2023-01-28T10:56:09;102339.63;;;5.13;51.35
29371;BME280;16357;52.188;7.838;2023-01-28T10:58:51;102342.66;;;5.22;51.18
29371;BME280;16357;52.188;7.838;2023-01-28T11:01:19;102335.91;;;5.33;51.29
29371;BME280;16357;52.188;7.838;2023-01-28T11:03:57;102334.47;;;5.43;51.26
29371;BME280;16357;52.188;7.838;2023-01-28T11:06:26;102341.09;;;5.52;50.94
29371;BME280;16357;52.188;7.838;2023-01-28T11:08:53;102328.13;;;5.61;50.64
29371;BME280;16357;52.188;7.838;2023-01-28T11:11:24;102324.03;;;5.71;50.59
29371;BME280;16357;52.188;7.838;2023-01-28T11:13:52;102327.13;;;5.80;50.41
29371;BME280;16357;52.188;7.838;2023-01-28T11:16:20;102323.13;;;5.87;50.46
29371;BME280;16357;52.188;7.838;2023-01-28T11:18:57;102324.53;;;5.94;49.99
29371;BME280;16357;52.188;7.838;2023-01-28T11:21:27;102316.19;;;6.00;50.16
29371;BME280;16357;52.188;7.838;2023-01-28T11:23:58;102307.03;;;6.06;49.98
29371;BME280;16357;52.188;7.838;2023-01-28T11:26:28;102301.31;;;6.12;49.65
29371;BME280;16357;52.188;7.838;2023-01-28T11:28:56;102301.13;;;6.15;49.67
29371;BME280;16357;52.188;7.838;2023-01-28T11:31:22;102306.28;;;6.18;49.40
29371;BME280;16357;52.188;7.838;2023-01-28T11:33:57;102305.19;;;6.22;49.36
29371;BME280;16357;52.188;7.838;2023-01-28T11:36:27;102299.75;;;6.24;49.17
29371;BME280;16357;52.188;7.838;2023-01-28T11:38:56;102290.03;;;6.23;49.04
29371;BME280;16357;52.188;7.838;2023-01-28T11:41:29;102289.06;;;6.24;48.96
29371;BME280;16357;52.188;7.838;2023-01-28T11:43:58;102306.03;;;6.23;49.48
29371;BME280;16357;52.188;7.838;2023-01-28T11:55:34;102259.09;;;6.20;49.28
29371;BME280;16357;52.188;7.838;2023-01-28T12:01:02;102235.56;;;6.12;49.02
29371;BME280;16357;52.188;7.838;2023-01-28T12:06:47;102229.75;;;6.06;49.31
29371;BME280;16357;52.188;7.838;2023-01-28T12:09:26;102222.81;;;6.03;49.83
29371;BME280;16357;52.188;7.838;2023-01-28T12:12:22;102204.22;;;6.02;49.73
29371;BME280;16357;52.188;7.838;2023-01-28T12:23:06;102231.25;;;5.96;49.89
29371;BME280;16357;52.188;7.838;2023-01-28T12:26:11;102230.22;;;5.98;50.14
29371;BME280;16357;52.188;7.838;2023-01-28T12:28:47;102218.50;;;6.01;49.58
29371;BME280;16357;52.188;7.838;2023-01-28T12:31:37;102216.78;;;6.00;49.23
29371;BME280;16357;52.188;7.838;2023-01-28T12:34:29;102208.72;;;6.01;49.54
29371;BME280;16357;52.188;7.838;2023-01-28T12:37:19;102208.59;;;6.03;49.84
29371;BME280;16357;52.188;7.838;2023-01-28T12:42:35;102202.09;;;6.08;50.11
29371;BME280;16357;52.188;7.838;2023-01-28T12:46:08;102213.31;;;6.13;50.06
29371;BME280;16357;52.188;7.838;2023-01-28T12:48:31;102213.72;;;6.22;49.96
29371;BME280;16357;52.188;7.838;2023-01-28T12:51:03;102225.91;;;6.26;49.51
29371;BME280;16357;52.188;7.838;2023-01-28T12:53:39;102244.88;;;6.35;49.88
29371;BME280;16357;52.188;7.838;2023-01-28T12:56:24;102228.41;;;6.43;49.80
29371;BME280;16357;52.188;7.838;2023-01-28T12:59:03;102224.44;;;6.50;49.99
29371;BME280;16357;52.188;7.838;2023-01-28T13:01:48;102229.19;;;6.59;49.45
29371;BME280;16357;52.188;7.838;2023-01-28T13:04:31;102236.81;;;6.66;49.15
29371;BME280;16357;52.188;7.838;2023-01-28T13:07:13;102240.03;;;6.71;48.74
29371;BME280;16357;52.188;7.838;2023-01-28T13:09:57;102238.16;;;6.73;48.78
29371;BME280;16357;52.188;7.838;2023-01-28T13:12:25;102241.59;;;6.75;48.49
29371;BME280;16357;52.188;7.838;2023-01-28T13:14:52;102232.63;;;6.76;48.15
29371;BME280;16357;52.188;7.838;2023-01-28T13:17:37;102234.34;;;6.77;48.80
29371;BME280;16357;52.188;7.838;2023-01-28T13:20:15;102232.44;;;6.79;48.37
29371;BME280;16357;52.188;7.838;2023-01-28T13:22:43;102241.19;;;6.81;48.76
29371;BME280;16357;52.188;7.838;2023-01-28T13:27:57;102235.47;;;6.87;48.62
29371;BME280;16357;52.188;7.838;2023-01-28T13:30:29;102233.38;;;6.92;48.43
29371;BME280;16357;52.188;7.838;2023-01-28T13:33:02;102234.06;;;6.96;48.45
29371;BME280;16357;52.188;7.838;2023-01-28T13:35:35;102225.66;;;7.02;48.45
29371;BME280;16357;52.188;7.838;2023-01-28T13:38:17;102213.75;;;7.08;48.80
29371;BME280;16357;52.188;7.838;2023-01-28T13:40:55;102207.25;;;7.12;48.38
29371;BME280;16357;52.188;7.838;2023-01-28T13:43:33;102198.09;;;7.16;48.06
29371;BME280;16357;52.188;7.838;2023-01-28T13:46:09;102203.25;;;7.19;48.46
29371;BME280;16357;52.188;7.838;2023-01-28T13:48:44;102194.28;;;7.20;48.13
29371;BME280;16357;52.188;7.838;2023-01-28T13:51:19;102179.13;;;7.20;48.24
29371;BME280;16357;52.188;7.838;2023-01-28T13:54:13;102162.25;;;7.20;48.24
29371;BME280;16357;52.188;7.838;2023-01-28T14:02:30;102154.53;;;7.15;48.30
29371;BME280;16357;52.188;7.838;2023-01-28T14:14:09;102187.81;;;7.10;47.98
29371;BME280;16357;52.188;7.838;2023-01-28T14:19:35;102202.28;;;7.06;48.09
29371;BME280;16357;52.188;7.838;2023-01-28T14:22:07;102210.41;;;7.04;48.38
29371;BME280;16357;52.188;7.838;2023-01-28T14:24:36;102208.81;;;7.01;48.05
29371;BME280;16357;52.188;7.838;2023-01-28T14:27:24;102216.03;;;6.99;48.11
29371;BME280;16357;52.188;7.838;2023-01-28T14:30:03;102209.09;;;6.97;47.85
29371;BME280;16357;52.188;7.838;2023-01-28T14:32:33;102206.69;;;6.92;48.18
29371;BME280;16357;52.188;7.838;2023-01-28T14:35:06;102200.63;;;6.90;48.18